Kindersley Airport, Saskatchewan

Past 24 Hour Conditions

Date / Time
(CST)
Conditions Temp
(°F)
Humidity
(%)
Dew Point
(°F)
Wind
(mph)
Pressure
(inches)
Visibility
(miles)
24 October 2014
18:00 Mainly Sunny 46 50 28 WNW 8 30.0 15
17:00 Mainly Sunny 51 42 29 WNW 12 gust 19 30.0 15
16:00 Mainly Sunny 52 39 28 WNW 17 gust 25 29.9 15
15:00 Mainly Sunny 53 38 28 WNW 16 gust 27 29.9 15
14:00 Mainly Sunny 52 41 29 WNW 17 gust 23 29.9 15
13:00 Mainly Sunny 50 47 31 WNW 17 gust 23 29.9 15
12:00 Mainly Sunny 48 55 33 WNW 17 gust 23 29.9 15
11:00 Mainly Sunny 45 62 33 W 19 gust 28 29.9 15
10:00 Mainly Sunny 40 72 32 W 17 29.9 15
9:00 Partly Cloudy 36 79 30 W 13 29.9 15
8:00 Mainly Sunny 35   79 29 W 11 29.8 15
7:00 Mainly Clear 37 75 29 WNW 9 29.8 15
6:00 Partly Cloudy 38 76 32 WNW 10 29.7 15
5:00 Mostly Cloudy 41 83 36 NW 9 29.7 15
4:00 Mostly Cloudy 40 86 36 W 8 29.6 15
3:00 Mainly Clear 43 79 37 WSW 5 29.6 15
2:00 Mainly Clear 43 78 37 SSW 6 29.6 15
1:00 Mainly Clear 49 66 39 SW 13 29.6 15
00:00 Cloudy 51 62 39 SW 15 29.6 15
23 October 2014
23:00 Cloudy 52 60 39 SW 15 29.6 15
22:00 Cloudy 54 56 39 SW 15 29.6 15
21:00 Cloudy 54 55 39 SW 12 gust 19 29.6 15
20:00 Cloudy 52 60 39 SSW 10 29.6 15
19:00 Mostly Cloudy 56 51 39 SSW 6 29.6 15
18:00 Partly Cloudy 59   47 39 WSW 15 gust 22 29.6 15
N/A Not available
↑ Highest temperature
↓ Lowest temperature

If you require additional historical weather information, please visit Climate Data Online.

Date modified: